sensor_id;sensor_type;location;lat;lon;timestamp;pressure;altitude;pressure_sealevel;temperature;humidity
75745;BME280;64359;51.366;-0.222;2023-02-23T00:00:43;101107.24;;;21.57;48.53
75745;BME280;64359;51.366;-0.222;2023-02-23T00:01:49;101106.95;;;21.56;48.53
75745;BME280;64359;51.366;-0.222;2023-02-23T00:02:54;101113.48;;;21.56;48.50
75745;BME280;64359;51.366;-0.222;2023-02-23T00:04:00;101116.31;;;21.55;48.49
75745;BME280;64359;51.366;-0.222;2023-02-23T00:05:06;101120.60;;;21.54;48.55
75745;BME280;64359;51.366;-0.222;2023-02-23T00:06:11;101122.79;;;21.54;48.46
75745;BME280;64359;51.366;-0.222;2023-02-23T00:07:16;101122.52;;;21.53;48.49
75745;BME280;64359;51.366;-0.222;2023-02-23T00:08:22;101128.38;;;21.52;48.54
75745;BME280;64359;51.366;-0.222;2023-02-23T00:09:30;101131.84;;;21.52;48.49
75745;BME280;64359;51.366;-0.222;2023-02-23T00:10:37;101130.32;;;21.51;48.50
75745;BME280;64359;51.366;-0.222;2023-02-23T00:11:42;101129.34;;;21.50;48.50
75745;BME280;64359;51.366;-0.222;2023-02-23T00:12:46;101132.29;;;21.50;48.49
75745;BME280;64359;51.366;-0.222;2023-02-23T00:13:51;101132.06;;;21.49;48.46
75745;BME280;64359;51.366;-0.222;2023-02-23T00:14:56;101131.23;;;21.48;48.56
75745;BME280;64359;51.366;-0.222;2023-02-23T00:16:04;101130.55;;;21.48;48.54
75745;BME280;64359;51.366;-0.222;2023-02-23T00:17:09;101129.75;;;21.47;48.50
75745;BME280;64359;51.366;-0.222;2023-02-23T00:18:16;101130.11;;;21.45;48.47
75745;BME280;64359;51.366;-0.222;2023-02-23T00:19:23;101132.98;;;21.45;48.43
75745;BME280;64359;51.366;-0.222;2023-02-23T00:20:27;101132.21;;;21.44;48.48
75745;BME280;64359;51.366;-0.222;2023-02-23T00:21:33;101135.91;;;21.43;48.48
75745;BME280;64359;51.366;-0.222;2023-02-23T00:22:38;101137.66;;;21.42;48.47
75745;BME280;64359;51.366;-0.222;2023-02-23T00:23:46;101136.61;;;21.42;48.45
75745;BME280;64359;51.366;-0.222;2023-02-23T00:24:50;101139.80;;;21.41;48.43
75745;BME280;64359;51.366;-0.222;2023-02-23T00:25:55;101142.41;;;21.40;48.41
75745;BME280;64359;51.366;-0.222;2023-02-23T00:27:01;101139.79;;;21.40;48.46
75745;BME280;64359;51.366;-0.222;2023-02-23T00:28:08;101142.20;;;21.39;48.49
75745;BME280;64359;51.366;-0.222;2023-02-23T00:29:14;101139.55;;;21.38;48.48
75745;BME280;64359;51.366;-0.222;2023-02-23T00:30:20;101142.92;;;21.38;48.49
75745;BME280;64359;51.366;-0.222;2023-02-23T00:31:25;101145.70;;;21.37;48.49
75745;BME280;64359;51.366;-0.222;2023-02-23T00:32:29;101145.06;;;21.36;48.48
75745;BME280;64359;51.366;-0.222;2023-02-23T00:33:34;101145.72;;;21.35;48.49
75745;BME280;64359;51.366;-0.222;2023-02-23T00:34:38;101145.08;;;21.35;48.45
75745;BME280;64359;51.366;-0.222;2023-02-23T00:35:43;101146.37;;;21.35;48.49
75745;BME280;64359;51.366;-0.222;2023-02-23T00:36:50;101145.90;;;21.34;48.43
75745;BME280;64359;51.366;-0.222;2023-02-23T00:37:56;101148.02;;;21.33;48.48
75745;BME280;64359;51.366;-0.222;2023-02-23T00:39:02;101147.34;;;21.33;48.41
75745;BME280;64359;51.366;-0.222;2023-02-23T00:40:14;101145.32;;;21.31;48.42
75745;BME280;64359;51.366;-0.222;2023-02-23T00:41:20;101143.46;;;21.30;48.42
75745;BME280;64359;51.366;-0.222;2023-02-23T00:42:26;101148.43;;;21.29;48.48
75745;BME280;64359;51.366;-0.222;2023-02-23T00:43:35;101144.71;;;21.29;48.46
75745;BME280;64359;51.366;-0.222;2023-02-23T00:44:40;101142.36;;;21.29;48.41
75745;BME280;64359;51.366;-0.222;2023-02-23T00:45:45;101144.39;;;21.28;48.43
75745;BME280;64359;51.366;-0.222;2023-02-23T00:46:50;101144.72;;;21.27;48.40
75745;BME280;64359;51.366;-0.222;2023-02-23T00:47:55;101144.38;;;21.27;48.40
75745;BME280;64359;51.366;-0.222;2023-02-23T00:49:00;101145.61;;;21.26;48.39
75745;BME280;64359;51.366;-0.222;2023-02-23T00:50:09;101139.52;;;21.26;48.40
75745;BME280;64359;51.366;-0.222;2023-02-23T00:51:15;101141.39;;;21.25;48.39
75745;BME280;64359;51.366;-0.222;2023-02-23T00:52:20;101139.31;;;21.24;48.37
75745;BME280;64359;51.366;-0.222;2023-02-23T00:53:24;101145.73;;;21.23;48.38
75745;BME280;64359;51.366;-0.222;2023-02-23T00:54:29;101142.70;;;21.23;48.39
75745;BME280;64359;51.366;-0.222;2023-02-23T00:55:33;101140.42;;;21.22;48.33
75745;BME280;64359;51.366;-0.222;2023-02-23T00:56:38;101143.52;;;21.22;48.30
75745;BME280;64359;51.366;-0.222;2023-02-23T00:57:43;101141.92;;;21.22;48.40
75745;BME280;64359;51.366;-0.222;2023-02-23T00:58:47;101139.02;;;21.20;48.34
75745;BME280;64359;51.366;-0.222;2023-02-23T00:59:52;101137.84;;;21.20;48.35
75745;BME280;64359;51.366;-0.222;2023-02-23T01:00:56;101137.00;;;21.19;48.28
75745;BME280;64359;51.366;-0.222;2023-02-23T01:02:01;101140.16;;;21.18;48.49
75745;BME280;64359;51.366;-0.222;2023-02-23T01:03:05;101138.95;;;21.18;48.31
75745;BME280;64359;51.366;-0.222;2023-02-23T01:04:11;101139.19;;;21.18;48.34
75745;BME280;64359;51.366;-0.222;2023-02-23T01:05:16;101136.05;;;21.17;48.31
75745;BME280;64359;51.366;-0.222;2023-02-23T01:06:21;101141.50;;;21.16;48.35
75745;BME280;64359;51.366;-0.222;2023-02-23T01:07:25;101145.58;;;21.15;48.34
75745;BME280;64359;51.366;-0.222;2023-02-23T01:08:31;101143.31;;;21.15;48.31
75745;BME280;64359;51.366;-0.222;2023-02-23T01:09:36;101143.34;;;21.14;48.32
75745;BME280;64359;51.366;-0.222;2023-02-23T01:10:42;101142.54;;;21.13;48.28
75745;BME280;64359;51.366;-0.222;2023-02-23T01:11:46;101143.48;;;21.13;48.34
75745;BME280;64359;51.366;-0.222;2023-02-23T01:12:51;101145.70;;;21.13;48.34
75745;BME280;64359;51.366;-0.222;2023-02-23T01:13:58;101145.77;;;21.12;48.45
75745;BME280;64359;51.366;-0.222;2023-02-23T01:15:03;101148.01;;;21.11;48.40
75745;BME280;64359;51.366;-0.222;2023-02-23T01:16:12;101149.43;;;21.12;48.49
75745;BME280;64359;51.366;-0.222;2023-02-23T01:17:17;101146.92;;;21.11;48.49
75745;BME280;64359;51.366;-0.222;2023-02-23T01:18:22;101147.84;;;21.11;48.56
75745;BME280;64359;51.366;-0.222;2023-02-23T01:19:27;101146.85;;;21.12;48.58
75745;BME280;64359;51.366;-0.222;2023-02-23T01:20:33;101150.16;;;21.13;48.70
75745;BME280;64359;51.366;-0.222;2023-02-23T01:21:39;101152.42;;;21.14;48.74
75745;BME280;64359;51.366;-0.222;2023-02-23T01:22:46;101154.72;;;21.14;48.77
75745;BME280;64359;51.366;-0.222;2023-02-23T01:23:52;101152.91;;;21.16;48.77
75745;BME280;64359;51.366;-0.222;2023-02-23T01:24:56;101152.09;;;21.17;48.81
75745;BME280;64359;51.366;-0.222;2023-02-23T01:26:01;101156.08;;;21.18;48.85
75745;BME280;64359;51.366;-0.222;2023-02-23T01:27:05;101156.27;;;21.20;48.89
75745;BME280;64359;51.366;-0.222;2023-02-23T01:28:12;101156.39;;;21.22;48.78
75745;BME280;64359;51.366;-0.222;2023-02-23T01:29:18;101157.26;;;21.23;48.86
75745;BME280;64359;51.366;-0.222;2023-02-23T01:30:22;101157.48;;;21.25;48.83
75745;BME280;64359;51.366;-0.222;2023-02-23T01:31:27;101156.00;;;21.27;48.75
75745;BME280;64359;51.366;-0.222;2023-02-23T01:32:35;101155.14;;;21.28;48.70
75745;BME280;64359;51.366;-0.222;2023-02-23T01:33:39;101156.02;;;21.29;48.73
75745;BME280;64359;51.366;-0.222;2023-02-23T01:34:44;101155.69;;;21.31;48.60
75745;BME280;64359;51.366;-0.222;2023-02-23T01:35:58;101157.34;;;21.32;48.48
75745;BME280;64359;51.366;-0.222;2023-02-23T01:37:03;101157.15;;;21.34;48.42
75745;BME280;64359;51.366;-0.222;2023-02-23T01:38:08;101158.23;;;21.35;48.39
75745;BME280;64359;51.366;-0.222;2023-02-23T01:39:14;101159.09;;;21.37;48.32
75745;BME280;64359;51.366;-0.222;2023-02-23T01:40:21;101159.65;;;21.38;48.26
75745;BME280;64359;51.366;-0.222;2023-02-23T01:41:30;101162.05;;;21.39;48.22
75745;BME280;64359;51.366;-0.222;2023-02-23T01:42:38;101163.85;;;21.41;48.18
75745;BME280;64359;51.366;-0.222;2023-02-23T01:44:01;101162.79;;;21.42;48.23
75745;BME280;64359;51.366;-0.222;2023-02-23T01:45:32;101166.10;;;21.43;48.24
75745;BME280;64359;51.366;-0.222;2023-02-23T01:46:38;101166.49;;;21.44;48.24
75745;BME280;64359;51.366;-0.222;2023-02-23T01:47:45;101168.36;;;21.45;48.23
75745;BME280;64359;51.366;-0.222;2023-02-23T01:48:50;101170.17;;;21.47;48.17
75745;BME280;64359;51.366;-0.222;2023-02-23T01:49:58;101172.02;;;21.48;48.12
75745;BME280;64359;51.366;-0.222;2023-02-23T01:51:07;101167.66;;;21.50;48.20
75745;BME280;64359;51.366;-0.222;2023-02-23T01:52:15;101173.31;;;21.51;48.19
75745;BME280;64359;51.366;-0.222;2023-02-23T01:53:20;101173.76;;;21.52;48.10
75745;BME280;64359;51.366;-0.222;2023-02-23T01:54:27;101173.39;;;21.54;48.15
75745;BME280;64359;51.366;-0.222;2023-02-23T01:55:34;101173.45;;;21.55;48.09
75745;BME280;64359;51.366;-0.222;2023-02-23T01:56:41;101170.25;;;21.56;48.15
75745;BME280;64359;51.366;-0.222;2023-02-23T01:57:47;101172.23;;;21.57;48.10
75745;BME280;64359;51.366;-0.222;2023-02-23T01:58:53;101169.83;;;21.58;48.07
75745;BME280;64359;51.366;-0.222;2023-02-23T01:59:58;101167.20;;;21.58;48.13
75745;BME280;64359;51.366;-0.222;2023-02-23T02:01:03;101167.30;;;21.59;48.15
75745;BME280;64359;51.366;-0.222;2023-02-23T02:02:07;101168.07;;;21.60;48.09
75745;BME280;64359;51.366;-0.222;2023-02-23T02:03:16;101165.80;;;21.61;48.07
75745;BME280;64359;51.366;-0.222;2023-02-23T02:04:24;101165.00;;;21.62;48.18
75745;BME280;64359;51.366;-0.222;2023-02-23T02:05:30;101164.22;;;21.62;48.22
75745;BME280;64359;51.366;-0.222;2023-02-23T02:06:36;101162.69;;;21.63;48.19
75745;BME280;64359;51.366;-0.222;2023-02-23T02:07:44;101165.32;;;21.64;48.33
75745;BME280;64359;51.366;-0.222;2023-02-23T02:08:51;101166.58;;;21.64;48.38
75745;BME280;64359;51.366;-0.222;2023-02-23T02:09:59;101166.58;;;21.64;48.41
75745;BME280;64359;51.366;-0.222;2023-02-23T02:11:41;101166.69;;;21.63;48.47
75745;BME280;64359;51.366;-0.222;2023-02-23T02:12:51;101171.02;;;21.63;48.56
75745;BME280;64359;51.366;-0.222;2023-02-23T02:14:00;101169.48;;;21.62;48.49
75745;BME280;64359;51.366;-0.222;2023-02-23T02:15:07;101170.30;;;21.61;48.39
75745;BME280;64359;51.366;-0.222;2023-02-23T02:16:27;101167.59;;;21.61;48.50
75745;BME280;64359;51.366;-0.222;2023-02-23T02:17:35;101166.88;;;21.61;48.49
75745;BME280;64359;51.366;-0.222;2023-02-23T02:18:56;101167.73;;;21.60;48.37
75745;BME280;64359;51.366;-0.222;2023-02-23T02:20:28;101169.47;;;21.59;48.27
75745;BME280;64359;51.366;-0.222;2023-02-23T02:23:42;101169.80;;;21.56;48.32
75745;BME280;64359;51.366;-0.222;2023-02-23T02:25:15;101171.20;;;21.55;48.20
75745;BME280;64359;51.366;-0.222;2023-02-23T02:26:34;101172.40;;;21.55;48.24
75745;BME280;64359;51.366;-0.222;2023-02-23T02:28:02;101168.57;;;21.53;48.22
75745;BME280;64359;51.366;-0.222;2023-02-23T02:31:27;101165.11;;;21.49;48.43
75745;BME280;64359;51.366;-0.222;2023-02-23T02:34:49;101166.09;;;21.45;48.22
75745;BME280;64359;51.366;-0.222;2023-02-23T02:36:21;101162.31;;;21.43;48.29
75745;BME280;64359;51.366;-0.222;2023-02-23T02:37:44;101162.30;;;21.42;48.24
75745;BME280;64359;51.366;-0.222;2023-02-23T02:38:54;101162.80;;;21.40;48.28
75745;BME280;64359;51.366;-0.222;2023-02-23T02:40:18;101165.23;;;21.40;48.30
75745;BME280;64359;51.366;-0.222;2023-02-23T02:41:33;101168.76;;;21.39;48.24
75745;BME280;64359;51.366;-0.222;2023-02-23T02:42:49;101167.23;;;21.38;48.18
75745;BME280;64359;51.366;-0.222;2023-02-23T02:44:01;101162.40;;;21.38;48.14
75745;BME280;64359;51.366;-0.222;2023-02-23T02:45:14;101163.14;;;21.38;48.27
75745;BME280;64359;51.366;-0.222;2023-02-23T02:46:24;101164.67;;;21.37;48.24
75745;BME280;64359;51.366;-0.222;2023-02-23T02:47:36;101161.88;;;21.36;48.21
75745;BME280;64359;51.366;-0.222;2023-02-23T02:48:47;101163.37;;;21.36;48.11
75745;BME280;64359;51.366;-0.222;2023-02-23T02:49:59;101161.11;;;21.35;48.18
75745;BME280;64359;51.366;-0.222;2023-02-23T02:51:09;101163.27;;;21.35;48.13
75745;BME280;64359;51.366;-0.222;2023-02-23T02:52:24;101163.95;;;21.34;48.17
75745;BME280;64359;51.366;-0.222;2023-02-23T02:53:40;101163.66;;;21.34;48.17
75745;BME280;64359;51.366;-0.222;2023-02-23T02:54:50;101163.73;;;21.33;48.14
75745;BME280;64359;51.366;-0.222;2023-02-23T02:55:57;101164.85;;;21.33;48.14
75745;BME280;64359;51.366;-0.222;2023-02-23T02:57:03;101163.30;;;21.32;48.14
75745;BME280;64359;51.366;-0.222;2023-02-23T02:58:10;101170.01;;;21.32;48.14
75745;BME280;64359;51.366;-0.222;2023-02-23T02:59:17;101166.66;;;21.31;48.15
75745;BME280;64359;51.366;-0.222;2023-02-23T03:00:41;101166.40;;;21.31;48.11
75745;BME280;64359;51.366;-0.222;2023-02-23T03:02:08;101168.14;;;21.29;48.09
75745;BME280;64359;51.366;-0.222;2023-02-23T03:03:35;101167.23;;;21.28;48.12
75745;BME280;64359;51.366;-0.222;2023-02-23T03:04:58;101165.66;;;21.26;48.22
75745;BME280;64359;51.366;-0.222;2023-02-23T03:06:23;101170.79;;;21.25;48.15
75745;BME280;64359;51.366;-0.222;2023-02-23T03:07:57;101167.89;;;21.23;48.22
75745;BME280;64359;51.366;-0.222;2023-02-23T03:09:35;101170.79;;;21.22;48.11
75745;BME280;64359;51.366;-0.222;2023-02-23T03:11:02;101168.23;;;21.19;48.22
75745;BME280;64359;51.366;-0.222;2023-02-23T03:12:32;101170.88;;;21.18;48.34
75745;BME280;64359;51.366;-0.222;2023-02-23T03:14:07;101169.80;;;21.17;48.28
75745;BME280;64359;51.366;-0.222;2023-02-23T03:15:40;101168.20;;;21.15;48.26
75745;BME280;64359;51.366;-0.222;2023-02-23T03:17:09;101166.21;;;21.13;48.22
75745;BME280;64359;51.366;-0.222;2023-02-23T03:18:47;101165.44;;;21.12;48.23
75745;BME280;64359;51.366;-0.222;2023-02-23T03:20:19;101166.50;;;21.11;48.31
75745;BME280;64359;51.366;-0.222;2023-02-23T03:21:49;101164.67;;;21.09;48.24
75745;BME280;64359;51.366;-0.222;2023-02-23T03:23:18;101164.50;;;21.08;48.29
75745;BME280;64359;51.366;-0.222;2023-02-23T03:24:47;101165.35;;;21.07;48.28
75745;BME280;64359;51.366;-0.222;2023-02-23T03:26:14;101162.41;;;21.06;48.26
75745;BME280;64359;51.366;-0.222;2023-02-23T03:27:45;101163.61;;;21.04;48.30
75745;BME280;64359;51.366;-0.222;2023-02-23T03:29:13;101160.13;;;21.04;48.25
75745;BME280;64359;51.366;-0.222;2023-02-23T03:30:44;101161.86;;;21.03;48.34
75745;BME280;64359;51.366;-0.222;2023-02-23T03:32:12;101162.21;;;21.01;48.31
75745;BME280;64359;51.366;-0.222;2023-02-23T03:33:46;101160.58;;;21.00;48.45
75745;BME280;64359;51.366;-0.222;2023-02-23T03:35:17;101161.33;;;20.98;48.33
75745;BME280;64359;51.366;-0.222;2023-02-23T03:36:48;101161.27;;;20.97;48.38
75745;BME280;64359;51.366;-0.222;2023-02-23T03:38:16;101161.79;;;20.96;48.35
75745;BME280;64359;51.366;-0.222;2023-02-23T03:39:44;101163.55;;;20.95;48.34
75745;BME280;64359;51.366;-0.222;2023-02-23T03:41:11;101168.03;;;20.94;48.49
75745;BME280;64359;51.366;-0.222;2023-02-23T03:42:36;101168.41;;;20.92;48.36
75745;BME280;64359;51.366;-0.222;2023-02-23T03:44:03;101170.52;;;20.91;48.32
75745;BME280;64359;51.366;-0.222;2023-02-23T03:45:28;101172.29;;;20.89;48.46
75745;BME280;64359;51.366;-0.222;2023-02-23T03:46:51;101177.41;;;20.89;48.36
75745;BME280;64359;51.366;-0.222;2023-02-23T03:48:16;101178.13;;;20.88;48.39
75745;BME280;64359;51.366;-0.222;2023-02-23T03:49:41;101179.77;;;20.86;48.38
75745;BME280;64359;51.366;-0.222;2023-02-23T03:51:06;101181.29;;;20.85;48.38
75745;BME280;64359;51.366;-0.222;2023-02-23T03:52:32;101185.33;;;20.84;48.31
75745;BME280;64359;51.366;-0.222;2023-02-23T03:54:00;101183.14;;;20.83;48.39
75745;BME280;64359;51.366;-0.222;2023-02-23T03:55:26;101184.69;;;20.82;48.32
75745;BME280;64359;51.366;-0.222;2023-02-23T03:56:52;101186.44;;;20.80;48.40
75745;BME280;64359;51.366;-0.222;2023-02-23T03:58:20;101185.59;;;20.80;48.46
75745;BME280;64359;51.366;-0.222;2023-02-23T03:59:46;101187.20;;;20.79;48.39
75745;BME280;64359;51.366;-0.222;2023-02-23T04:01:11;101185.80;;;20.78;48.36
75745;BME280;64359;51.366;-0.222;2023-02-23T04:02:35;101185.75;;;20.77;48.34
75745;BME280;64359;51.366;-0.222;2023-02-23T04:03:59;101185.18;;;20.76;48.47
75745;BME280;64359;51.366;-0.222;2023-02-23T04:05:23;101185.29;;;20.75;48.39
75745;BME280;64359;51.366;-0.222;2023-02-23T04:06:46;101187.91;;;20.74;48.32
75745;BME280;64359;51.366;-0.222;2023-02-23T04:08:12;101185.34;;;20.73;48.42
75745;BME280;64359;51.366;-0.222;2023-02-23T04:09:35;101191.91;;;20.73;48.43
75745;BME280;64359;51.366;-0.222;2023-02-23T04:11:01;101191.20;;;20.73;48.32
75745;BME280;64359;51.366;-0.222;2023-02-23T04:12:33;101193.04;;;20.71;48.42
75745;BME280;64359;51.366;-0.222;2023-02-23T04:14:01;101188.44;;;20.70;48.39
75745;BME280;64359;51.366;-0.222;2023-02-23T04:15:09;101188.48;;;20.70;48.39
75745;BME280;64359;51.366;-0.222;2023-02-23T04:16:15;101193.65;;;20.70;48.49
75745;BME280;64359;51.366;-0.222;2023-02-23T04:17:19;101194.16;;;20.70;48.49
75745;BME280;64359;51.366;-0.222;2023-02-23T04:18:31;101195.58;;;20.71;48.48
75745;BME280;64359;51.366;-0.222;2023-02-23T04:19:35;101192.25;;;20.71;48.64
75745;BME280;64359;51.366;-0.222;2023-02-23T04:20:40;101193.23;;;20.72;48.49
75745;BME280;64359;51.366;-0.222;2023-02-23T04:21:44;101194.91;;;20.73;48.59
75745;BME280;64359;51.366;-0.222;2023-02-23T04:22:48;101195.28;;;20.75;48.53
75745;BME280;64359;51.366;-0.222;2023-02-23T04:23:53;101194.92;;;20.76;48.56
75745;BME280;64359;51.366;-0.222;2023-02-23T04:24:57;101194.24;;;20.77;48.63
75745;BME280;64359;51.366;-0.222;2023-02-23T04:26:01;101194.02;;;20.79;48.79
75745;BME280;64359;51.366;-0.222;2023-02-23T04:27:07;101193.86;;;20.80;48.74
75745;BME280;64359;51.366;-0.222;2023-02-23T04:28:11;101198.04;;;20.82;48.76
75745;BME280;64359;51.366;-0.222;2023-02-23T04:29:15;101194.98;;;20.83;48.75
75745;BME280;64359;51.366;-0.222;2023-02-23T04:30:20;101198.55;;;20.86;48.72
75745;BME280;64359;51.366;-0.222;2023-02-23T04:31:27;101199.05;;;20.88;48.78
75745;BME280;64359;51.366;-0.222;2023-02-23T04:32:32;101198.84;;;20.89;48.56
75745;BME280;64359;51.366;-0.222;2023-02-23T04:33:36;101201.77;;;20.92;48.68
75745;BME280;64359;51.366;-0.222;2023-02-23T04:34:41;101204.13;;;20.94;48.53
75745;BME280;64359;51.366;-0.222;2023-02-23T04:35:45;101199.95;;;20.95;48.63
75745;BME280;64359;51.366;-0.222;2023-02-23T04:36:49;101205.02;;;20.97;48.53
75745;BME280;64359;51.366;-0.222;2023-02-23T04:37:54;101203.75;;;20.98;48.51
75745;BME280;64359;51.366;-0.222;2023-02-23T04:38:58;101204.98;;;21.00;48.19
75745;BME280;64359;51.366;-0.222;2023-02-23T04:40:03;101205.15;;;21.02;48.17
75745;BME280;64359;51.366;-0.222;2023-02-23T04:41:08;101204.59;;;21.03;48.34
75745;BME280;64359;51.366;-0.222;2023-02-23T04:42:12;101205.49;;;21.05;48.24
75745;BME280;64359;51.366;-0.222;2023-02-23T04:43:16;101202.84;;;21.06;48.27
75745;BME280;64359;51.366;-0.222;2023-02-23T04:44:21;101203.45;;;21.07;48.08
75745;BME280;64359;51.366;-0.222;2023-02-23T04:45:26;101204.68;;;21.09;48.11
75745;BME280;64359;51.366;-0.222;2023-02-23T04:46:31;101205.08;;;21.10;47.87
75745;BME280;64359;51.366;-0.222;2023-02-23T04:47:36;101199.48;;;21.11;47.91
75745;BME280;64359;51.366;-0.222;2023-02-23T04:48:40;101201.70;;;21.12;47.77
75745;BME280;64359;51.366;-0.222;2023-02-23T04:49:45;101201.90;;;21.14;47.71
75745;BME280;64359;51.366;-0.222;2023-02-23T04:50:52;101200.50;;;21.15;47.69
75745;BME280;64359;51.366;-0.222;2023-02-23T04:51:57;101201.27;;;21.16;47.57
75745;BME280;64359;51.366;-0.222;2023-02-23T04:53:01;101203.80;;;21.18;47.61
75745;BME280;64359;51.366;-0.222;2023-02-23T04:54:05;101208.02;;;21.19;47.62
75745;BME280;64359;51.366;-0.222;2023-02-23T04:55:16;101204.73;;;21.21;47.59
75745;BME280;64359;51.366;-0.222;2023-02-23T04:56:21;101207.16;;;21.22;47.53
75745;BME280;64359;51.366;-0.222;2023-02-23T04:57:25;101210.09;;;21.23;47.57
75745;BME280;64359;51.366;-0.222;2023-02-23T04:58:30;101214.86;;;21.24;47.56
75745;BME280;64359;51.366;-0.222;2023-02-23T04:59:35;101216.00;;;21.25;47.50
75745;BME280;64359;51.366;-0.222;2023-02-23T05:00:40;101218.98;;;21.26;47.49
75745;BME280;64359;51.366;-0.222;2023-02-23T05:01:44;101217.79;;;21.26;47.44
75745;BME280;64359;51.366;-0.222;2023-02-23T05:02:48;101219.84;;;21.27;47.35
75745;BME280;64359;51.366;-0.222;2023-02-23T05:03:53;101220.85;;;21.28;47.38
75745;BME280;64359;51.366;-0.222;2023-02-23T05:04:57;101224.34;;;21.29;47.37
75745;BME280;64359;51.366;-0.222;2023-02-23T05:06:02;101224.97;;;21.30;47.35
75745;BME280;64359;51.366;-0.222;2023-02-23T05:07:06;101231.20;;;21.31;47.42
75745;BME280;64359;51.366;-0.222;2023-02-23T05:08:10;101232.58;;;21.31;47.48
75745;BME280;64359;51.366;-0.222;2023-02-23T05:09:15;101239.18;;;21.32;47.38
75745;BME280;64359;51.366;-0.222;2023-02-23T05:10:19;101236.60;;;21.32;47.41
75745;BME280;64359;51.366;-0.222;2023-02-23T05:11:24;101241.40;;;21.33;47.27
75745;BME280;64359;51.366;-0.222;2023-02-23T05:12:29;101236.83;;;21.34;47.27
75745;BME280;64359;51.366;-0.222;2023-02-23T05:13:34;101236.55;;;21.34;47.23
75745;BME280;64359;51.366;-0.222;2023-02-23T05:14:39;101235.27;;;21.35;47.26
75745;BME280;64359;51.366;-0.222;2023-02-23T05:15:43;101236.40;;;21.36;47.26
75745;BME280;64359;51.366;-0.222;2023-02-23T05:16:47;101235.36;;;21.35;47.34
75745;BME280;64359;51.366;-0.222;2023-02-23T05:17:52;101236.71;;;21.36;47.27
75745;BME280;64359;51.366;-0.222;2023-02-23T05:18:57;101232.13;;;21.37;47.27
75745;BME280;64359;51.366;-0.222;2023-02-23T05:20:01;101238.50;;;21.36;47.23
75745;BME280;64359;51.366;-0.222;2023-02-23T05:21:07;101230.67;;;21.37;47.30
75745;BME280;64359;51.366;-0.222;2023-02-23T05:22:12;101233.52;;;21.37;47.20
75745;BME280;64359;51.366;-0.222;2023-02-23T05:23:17;101230.64;;;21.37;47.13
75745;BME280;64359;51.366;-0.222;2023-02-23T05:24:22;101232.73;;;21.37;47.16
75745;BME280;64359;51.366;-0.222;2023-02-23T05:25:27;101231.11;;;21.38;47.28
75745;BME280;64359;51.366;-0.222;2023-02-23T05:26:31;101226.23;;;21.38;47.33
75745;BME280;64359;51.366;-0.222;2023-02-23T05:27:36;101229.07;;;21.38;47.24
75745;BME280;64359;51.366;-0.222;2023-02-23T05:28:41;101233.03;;;21.38;47.21
75745;BME280;64359;51.366;-0.222;2023-02-23T05:29:46;101233.98;;;21.38;47.21
75745;BME280;64359;51.366;-0.222;2023-02-23T05:30:50;101235.20;;;21.38;47.19
75745;BME280;64359;51.366;-0.222;2023-02-23T05:31:54;101237.61;;;21.38;47.26
75745;BME280;64359;51.366;-0.222;2023-02-23T05:32:59;101237.61;;;21.38;47.24
75745;BME280;64359;51.366;-0.222;2023-02-23T05:34:03;101241.57;;;21.38;47.21
75745;BME280;64359;51.366;-0.222;2023-02-23T05:35:09;101242.70;;;21.37;47.22
75745;BME280;64359;51.366;-0.222;2023-02-23T05:36:17;101240.77;;;21.37;47.22
75745;BME280;64359;51.366;-0.222;2023-02-23T05:37:22;101244.33;;;21.37;47.27
75745;BME280;64359;51.366;-0.222;2023-02-23T05:38:27;101241.06;;;21.37;47.25
75745;BME280;64359;51.366;-0.222;2023-02-23T05:39:31;101245.64;;;21.37;47.26
75745;BME280;64359;51.366;-0.222;2023-02-23T05:40:36;101240.56;;;21.37;47.18
75745;BME280;64359;51.366;-0.222;2023-02-23T05:41:41;101242.80;;;21.37;47.19
75745;BME280;64359;51.366;-0.222;2023-02-23T05:42:46;101247.81;;;21.37;47.22
75745;BME280;64359;51.366;-0.222;2023-02-23T05:43:51;101253.20;;;21.37;47.17
75745;BME280;64359;51.366;-0.222;2023-02-23T05:44:55;101250.35;;;21.37;47.18
75745;BME280;64359;51.366;-0.222;2023-02-23T05:45:59;101257.02;;;21.37;47.16
75745;BME280;64359;51.366;-0.222;2023-02-23T05:47:04;101253.23;;;21.37;47.24
75745;BME280;64359;51.366;-0.222;2023-02-23T05:48:09;101258.11;;;21.37;47.28
75745;BME280;64359;51.366;-0.222;2023-02-23T05:49:13;101260.08;;;21.37;47.22
75745;BME280;64359;51.366;-0.222;2023-02-23T05:50:18;101259.36;;;21.37;47.24
75745;BME280;64359;51.366;-0.222;2023-02-23T05:51:23;101259.16;;;21.37;47.22
75745;BME280;64359;51.366;-0.222;2023-02-23T05:52:27;101260.04;;;21.37;47.25
75745;BME280;64359;51.366;-0.222;2023-02-23T05:53:32;101261.87;;;21.37;47.18
75745;BME280;64359;51.366;-0.222;2023-02-23T05:54:36;101263.08;;;21.38;47.21
75745;BME280;64359;51.366;-0.222;2023-02-23T05:55:40;101264.37;;;21.37;47.23
75745;BME280;64359;51.366;-0.222;2023-02-23T05:56:45;101265.42;;;21.38;47.19
75745;BME280;64359;51.366;-0.222;2023-02-23T05:57:49;101266.85;;;21.38;47.22
75745;BME280;64359;51.366;-0.222;2023-02-23T05:58:55;101266.85;;;21.38;47.19
75745;BME280;64359;51.366;-0.222;2023-02-23T06:00:00;101268.43;;;21.38;47.17
75745;BME280;64359;51.366;-0.222;2023-02-23T06:01:04;101267.22;;;21.38;47.23
75745;BME280;64359;51.366;-0.222;2023-02-23T06:02:09;101268.27;;;21.38;47.24
75745;BME280;64359;51.366;-0.222;2023-02-23T06:03:13;101270.43;;;21.38;47.20
75745;BME280;64359;51.366;-0.222;2023-02-23T06:04:17;101275.45;;;21.38;47.16
75745;BME280;64359;51.366;-0.222;2023-02-23T06:05:22;101276.49;;;21.39;47.11
75745;BME280;64359;51.366;-0.222;2023-02-23T06:06:27;101279.71;;;21.39;47.09
75745;BME280;64359;51.366;-0.222;2023-02-23T06:07:31;101281.30;;;21.39;47.11
75745;BME280;64359;51.366;-0.222;2023-02-23T06:08:36;101280.58;;;21.39;47.15
75745;BME280;64359;51.366;-0.222;2023-02-23T06:09:40;101286.86;;;21.40;47.23